Latest Weather Observations for Miles

IDQ60801

Issued at 3:02 pm EST Saturday 30 July 2016 (issued every 30 minutes, with the page automatically refreshed every 10 minutes)

About weather observations | Map of weather stations | Latest weather observations for QLD | Other Formats
Station Details ID: 042112 Name: MILES CONSTANCE STREET Lat: -26.66 Lon: 150.18 Height: 304.8 m
Data from the previous 72 hours. | See also: Recent months at Miles
Date/Time
EST
Temp
°C
App
Temp
°C
Dew
Point
°C
Rel
Hum
%
Delta-T
°C
Wind Press
QNH
hPa
Press
MSL
hPa
Rain since
9am
mm
Dir  Spd
km/h
Gust
km/h
Spd
kts
Gust
kts
30/03:00pm 18.1 14.2 1.3 32 7.6 SSW 11 15 6 8 1019.6 1019.7 0.0
30/02:30pm 18.2 15.2 2.1 34 7.4 SSW 7 15 4 8 1019.9 - 0.0
30/02:00pm 18.2 15.2 1.8 33 7.5 SW 7 11 4 6 1020.1 - 0.0
30/01:30pm 17.0 13.9 1.1 34 7.1 SSW 7 15 4 8 1020.5 - 0.0
30/01:00pm 16.8 13.4 1.7 36 6.8 SW 9 19 5 10 1021.1 - 0.0
30/12:30pm 16.1 12.7 1.6 37 6.5 WSW 9 20 5 11 1021.6 - 0.0
30/12:00pm 15.4 11.7 2.6 42 5.8 SSW 11 19 6 10 1022.3 1022.4 0.0
30/11:30am 14.3 11.1 2.8 46 5.2 SW 9 17 5 9 1022.6 - 0.0
30/11:00am 13.6 10.9 3.5 50 4.6 SSW 7 13 4 7 1023.1 - 0.0
30/10:30am 12.7 9.6 3.7 54 4.1 SSE 9 17 5 9 1023.5 - 0.0
30/10:00am 11.6 8.5 3.8 59 3.5 S 9 15 5 8 1023.8 - 0.0
30/09:30am 10.5 7.1 3.8 63 3.0 S 11 19 6 10 1024.1 - 0.0
30/09:00am 9.1 7.4 4.2 71 2.2 S 2 9 1 5 1024.1 1024.2 0.0
30/08:30am 7.1 5.9 4.4 83 1.2 CALM 0 0 0 0 1023.8 - 0.0
30/08:00am 5.3 3.9 3.4 87 0.8 CALM 0 0 0 0 1023.8 - 0.0
30/07:30am 1.5 -0.3 1.0 96 0.2 CALM 0 6 0 3 1023.6 - 0.0
30/07:00am 0.1 - - - - CALM 0 0 0 0 1023.5 - 0.0
30/06:30am 0.1 - - - - CALM 0 0 0 0 1023.2 - 0.0
30/06:00am 0.3 - - - - CALM 0 0 0 0 1023.0 1023.1 0.0
30/05:30am 0.5 -1.5 0.2 98 0.1 CALM 0 0 0 0 1022.6 - 0.0
30/05:00am 0.7 -1.2 0.4 98 0.1 CALM 0 0 0 0 1022.3 - 0.0
30/04:30am 1.1 -0.8 0.6 96 0.2 CALM 0 0 0 0 1022.1 - 0.0
30/04:00am 1.3 -0.6 0.8 96 0.2 CALM 0 0 0 0 1022.1 - 0.0
30/03:30am 1.7 -0.1 1.2 96 0.2 CALM 0 0 0 0 1022.2 - 0.0
30/03:00am 1.9 0.1 1.4 96 0.2 CALM 0 0 0 0 1022.4 1022.5 0.0
30/02:30am 2.0 0.2 1.5 96 0.2 CALM 0 0 0 0 1022.4 - 0.0
30/02:00am 2.5 0.8 1.7 94 0.3 CALM 0 0 0 0 1022.7 - 0.0
30/01:30am 2.8 1.1 2.0 94 0.3 CALM 0 0 0 0 1022.8 - 0.0
30/01:00am 3.1 1.5 2.4 95 0.3 CALM 0 0 0 0 1022.9 - 0.0
30/12:30am 3.7 2.1 2.7 93 0.4 CALM 0 0 0 0 1023.1 - 0.0
30/12:00am 3.9 2.4 2.9 93 0.4 CALM 0 0 0 0 1023.3 1023.4 0.0
 
Date/Time
EST
Temp
°C
App
Temp
°C
Dew
Point
°C
Rel
Hum
%
Delta-T
°C
Wind Press
QNH
hPa
Press
MSL
hPa
Rain since
9am
mm
Dir  Spd
km/h
Gust
km/h
Spd
kts
Gust
kts
29/11:30pm 4.3 2.8 2.8 90 0.6 CALM 0 0 0 0 1023.3 - 0.0
29/11:00pm 4.9 3.4 3.2 89 0.7 CALM 0 0 0 0 1023.3 - 0.0
29/10:30pm 5.1 3.6 3.2 87 0.8 CALM 0 0 0 0 1023.4 - 0.0
29/10:00pm 5.8 4.4 3.4 84 1.0 CALM 0 0 0 0 1023.4 - 0.0
29/09:30pm 6.5 5.1 3.7 82 1.2 CALM 0 0 0 0 1023.3 - 0.0
29/09:00pm 7.2 5.9 4.2 81 1.3 CALM 0 0 0 0 1023.3 1023.4 0.0
29/08:30pm 8.0 6.9 5.1 82 1.3 CALM 0 0 0 0 1023.1 - 0.0
29/08:00pm 8.8 7.5 4.1 72 2.1 CALM 0 0 0 0 1022.7 - 0.0
29/07:30pm 10.5 9.0 3.0 60 3.3 CALM 0 0 0 0 1022.6 - 0.0
29/07:00pm 11.1 9.7 3.5 59 3.4 CALM 0 0 0 0 1022.2 - 0.0
29/06:30pm 12.3 11.2 5.3 62 3.3 CALM 0 0 0 0 1021.9 - 0.0
29/06:00pm 15.0 12.4 0.8 38 6.2 SSW 4 7 2 4 1021.6 1021.7 0.0
29/05:30pm 16.5 13.3 0.9 34 6.9 SSW 7 9 4 5 1021.5 - 0.0
29/05:00pm 17.8 14.5 0.4 31 7.7 S 7 15 4 8 1021.4 - 0.0
29/04:30pm 18.7 15.2 1.0 30 8.0 SSW 9 15 5 8 1021.2 - 0.0
29/04:00pm 19.8 17.7 1.9 30 8.3 W 2 13 1 7 1021.1 - 0.0
29/03:30pm 20.1 16.6 -1.1 24 9.3 WSW 7 11 4 6 1021.2 - 0.0
29/03:00pm 19.7 15.9 -0.8 25 9.0 SW 9 17 5 9 1021.3 1021.3 0.0
29/02:30pm 20.0 17.2 1.9 30 8.4 WNW 6 13 3 7 1021.5 - 0.0
29/02:00pm 20.0 17.9 4.1 35 7.7 SW 4 9 2 5 1021.7 - 0.0
29/01:30pm 19.8 18.3 3.2 33 7.9 CALM 0 7 0 4 1022.1 - 0.0
29/01:00pm 18.3 15.4 2.6 35 7.3 SSE 7 11 4 6 1022.7 - 0.0
29/12:30pm 18.1 16.6 2.9 36 7.1 CALM 0 7 0 4 1023.3 - 0.0
29/12:00pm 17.4 15.7 4.2 41 6.3 S 2 7 1 4 1024.0 1024.1 0.0
29/11:30am 16.4 14.7 4.1 44 5.8 SW 2 11 1 6 1024.6 - 0.0
29/11:00am 15.6 14.1 5.2 50 5.0 SSE 2 9 1 5 1025.0 - 0.0
29/10:30am 14.9 12.7 5.5 53 4.5 SE 6 9 3 5 1025.3 - 0.0
29/10:00am 13.0 11.0 6.1 63 3.3 S 6 7 3 4 1025.5 - 0.0
29/09:30am 11.7 10.8 6.0 68 2.7 CALM 0 7 0 4 1025.6 - 0.0
29/09:00am 9.6 7.8 5.5 75 1.9 S 4 7 2 4 1025.7 1025.8 0.0
29/08:30am 7.1 5.9 4.8 85 1.0 CALM 0 0 0 0 1025.7 - 0.0
29/08:00am 4.8 3.4 3.4 91 0.6 CALM 0 0 0 0 1025.6 - 0.0
29/07:30am 1.8 0.0 1.3 96 0.2 CALM 0 0 0 0 1025.4 - 0.0
29/07:00am 0.6 -1.4 0.1 96 0.2 CALM 0 0 0 0 1025.5 - 0.0
29/06:30am 0.6 -1.3 0.3 98 0.1 CALM 0 0 0 0 1025.3 - 0.0
29/06:00am 0.7 -1.2 0.4 98 0.1 CALM 0 0 0 0 1025.2 1025.3 0.0
29/05:30am 1.2 -0.7 0.7 96 0.2 CALM 0 0 0 0 1025.1 - 0.0
29/05:00am 1.4 -0.4 0.9 96 0.2 CALM 0 0 0 0 1024.8 - 0.0
29/04:30am 1.7 -0.1 1.2 96 0.2 CALM 0 0 0 0 1024.6 - 0.0
29/04:00am 1.6 -0.2 1.3 98 0.1 CALM 0 0 0 0 1024.5 - 0.0
29/03:30am 2.0 0.2 1.5 96 0.2 CALM 0 0 0 0 1024.4 - 0.0
29/03:00am 2.1 0.4 1.6 96 0.2 CALM 0 0 0 0 1024.7 1024.8 0.0
29/02:30am 2.1 0.4 1.6 96 0.2 CALM 0 0 0 0 1024.6 - 0.0
29/02:00am 2.6 0.9 2.1 96 0.2 CALM 0 0 0 0 1024.6 - 0.0
29/01:30am 3.0 1.4 2.2 94 0.3 CALM 0 0 0 0 1024.6 - 0.0
29/01:00am 3.1 1.5 2.6 96 0.2 CALM 0 0 0 0 1024.8 - 0.0
29/12:30am 3.4 1.9 2.9 97 0.2 CALM 0 0 0 0 1024.7 - 0.0
29/12:00am 3.8 2.4 3.3 97 0.2 CALM 0 0 0 0 1024.8 1024.9 0.0
 
Date/Time
EST
Temp
°C
App
Temp
°C
Dew
Point
°C
Rel
Hum
%
Delta-T
°C
Wind Press
QNH
hPa
Press
MSL
hPa
Rain since
9am
mm
Dir  Spd
km/h
Gust
km/h
Spd
kts
Gust
kts
28/11:30pm 4.1 2.7 3.4 95 0.3 CALM 0 0 0 0 1024.9 - 0.0
28/11:00pm 4.5 3.1 3.5 93 0.4 CALM 0 0 0 0 1024.9 - 0.0
28/10:30pm 4.8 3.5 3.9 94 0.4 CALM 0 0 0 0 1025.0 - 0.0
28/10:00pm 5.5 4.2 4.3 92 0.5 CALM 0 0 0 0 1025.1 - 0.0
28/09:30pm 6.0 4.7 3.9 86 0.9 CALM 0 0 0 0 1025.2 - 0.0
28/09:00pm 6.4 5.1 4.3 86 0.9 CALM 0 0 0 0 1025.2 1025.3 0.0
28/08:30pm 7.3 6.1 4.6 83 1.2 CALM 0 0 0 0 1025.3 - 0.0
28/08:00pm 8.2 7.2 5.6 84 1.2 CALM 0 0 0 0 1025.1 - 0.0
28/07:30pm 9.3 8.2 5.1 75 1.9 CALM 0 0 0 0 1024.9 - 0.0
28/07:00pm 10.3 9.3 5.6 72 2.2 CALM 0 0 0 0 1024.7 - 0.0
28/06:30pm 11.6 10.3 4.1 60 3.4 CALM 0 0 0 0 1024.2 - 0.0
28/06:00pm 13.4 12.1 4.1 53 4.3 CALM 0 0 0 0 1024.2 1024.3 0.0
28/05:30pm 15.3 12.0 2.2 41 5.9 SSW 9 13 5 7 1023.8 - 0.0
28/05:00pm 16.3 12.5 1.9 38 6.5 SSW 11 20 6 11 1023.6 - 0.0
28/04:30pm 17.1 12.9 1.6 35 7.0 S 13 24 7 13 1023.3 - 0.0
28/04:00pm 17.7 13.8 0.9 32 7.5 S 11 19 6 10 1023.1 - 0.0
28/03:30pm 17.8 13.0 0.4 31 7.7 S 15 24 8 13 1023.1 - 0.0
28/03:00pm 17.3 12.1 -0.2 30 7.6 S 17 24 9 13 1023.2 1023.3 0.0
28/02:30pm 18.0 13.7 0.7 31 7.7 SSW 13 26 7 14 1023.5 - 0.0
28/02:00pm 17.5 12.8 0.6 32 7.5 SSE 15 26 8 14 1023.7 - 0.0
28/01:30pm 16.9 12.1 0.5 33 7.2 S 15 26 8 14 1023.9 - 0.0
28/01:00pm 16.8 12.0 0.4 33 7.2 S 15 22 8 12 1024.4 - 0.0
28/12:30pm 15.9 10.8 0.5 35 6.7 S 17 30 9 16 1024.9 - 0.0
28/12:00pm 16.1 11.1 1.2 36 6.6 S 17 28 9 15 1025.3 1025.4 0.0
28/11:30am 15.7 11.1 1.5 38 6.3 S 15 26 8 14 1025.8 - 0.0
28/11:00am 14.9 9.3 0.9 38 6.1 S 20 33 11 18 1026.2 - 0.0
28/10:30am 14.5 8.9 1.2 40 5.8 S 20 35 11 19 1026.4 - 0.0
28/10:00am 13.6 8.7 2.3 46 5.0 S 17 30 9 16 1026.7 - 0.0
28/09:30am 12.8 8.9 3.2 52 4.3 S 13 20 7 11 1026.9 - 0.0
28/09:00am 11.6 8.2 3.8 59 3.5 S 11 19 6 10 1026.7 1026.8 0.0
28/08:30am 9.8 7.3 5.0 72 2.2 S 7 17 4 9 1026.5 - 0.0
28/08:00am 6.8 5.7 5.0 88 0.8 CALM 0 0 0 0 1026.4 - 0.0
28/07:30am 3.5 1.9 2.5 93 0.4 CALM 0 0 0 0 1026.0 - 0.0
28/07:00am 1.7 -0.1 1.2 96 0.2 CALM 0 0 0 0 1025.7 - 0.0
28/06:30am 1.6 -0.2 1.3 98 0.1 CALM 0 0 0 0 1025.4 - 0.0
28/06:00am 1.9 0.1 1.4 96 0.2 CALM 0 0 0 0 1025.1 1025.2 0.0
28/05:30am 1.9 0.2 1.6 98 0.1 CALM 0 0 0 0 1024.9 - 0.0
28/05:00am 2.3 0.6 1.8 96 0.2 CALM 0 0 0 0 1024.5 - 0.0
28/04:30am 2.6 0.9 2.1 96 0.2 CALM 0 0 0 0 1024.1 - 0.0
28/04:00am 2.8 1.2 2.3 96 0.2 CALM 0 0 0 0 1023.9 - 0.0
28/03:30am 3.0 1.4 2.5 96 0.2 CALM 0 0 0 0 1023.9 - 0.0
28/03:00am 3.4 1.8 2.7 95 0.3 CALM 0 0 0 0 1023.9 1024.0 0.0
28/02:30am 4.0 2.5 3.0 93 0.4 CALM 0 0 0 0 1024.0 - 0.0
28/02:00am 5.1 3.8 3.9 92 0.5 CALM 0 0 0 0 1023.9 - 0.0
28/01:30am 6.0 4.8 4.4 89 0.7 CALM 0 0 0 0 1024.0 - 0.0
28/01:00am 7.1 5.7 3.6 78 1.5 CALM 0 0 0 0 1024.2 - 0.0
28/12:30am 8.2 6.0 3.1 70 2.2 SSW 4 7 2 4 1024.4 - 0.0
28/12:00am 8.5 5.8 2.6 66 2.5 SSW 6 9 3 5 1024.2 1024.3 0.0
 
Date/Time
EST
Temp
°C
App
Temp
°C
Dew
Point
°C
Rel
Hum
%
Delta-T
°C
Wind Press
QNH
hPa
Press
MSL
hPa
Rain since
9am
mm
Dir  Spd
km/h
Gust
km/h
Spd
kts
Gust
kts
27/11:30pm 8.0 5.8 3.4 73 2.0 S 4 7 2 4 1024.2 - 0.0
27/11:00pm 7.7 6.3 3.8 76 1.7 CALM 0 0 0 0 1024.1 - 0.0
27/10:30pm 8.4 5.9 3.6 72 2.1 S 6 7 3 4 1024.1 - 0.0
27/10:00pm 7.5 6.3 4.6 82 1.3 CALM 0 0 0 0 1023.9 - 0.0
27/09:30pm 9.7 7.6 3.8 66 2.6 SSE 4 7 2 4 1023.7 - 0.0
27/09:00pm 7.6 5.0 4.4 80 1.4 SW 7 11 4 6 1023.4 1023.5 0.0
27/08:30pm 8.3 7.2 5.2 81 1.4 CALM 0 0 0 0 1023.2 - 0.0
27/08:00pm 8.9 7.9 5.4 79 1.6 CALM 0 0 0 0 1023.0 - 0.0
27/07:30pm 9.9 8.8 5.1 72 2.2 CALM 0 0 0 0 1022.7 - 0.0
27/07:00pm 11.0 9.9 4.9 66 2.8 CALM 0 0 0 0 1022.2 - 0.0
27/06:30pm 12.4 11.1 5.9 64 3.1 WSW 2 7 1 4 1021.7 - 0.0
27/06:00pm 15.0 12.9 3.8 47 5.2 SW 4 7 2 4 1021.4 1021.4 0.0
27/05:30pm 16.4 13.7 2.4 39 6.4 SW 6 9 3 5 1021.1 - 0.0
27/05:00pm 17.7 13.4 1.3 33 7.4 SW 13 19 7 10 1020.5 - 0.0
27/04:30pm 18.3 14.4 1.3 32 7.7 SW 11 20 6 11 1020.1 - 0.0
27/04:00pm 18.9 15.6 0.3 28 8.3 WSW 7 19 4 10 1019.7 - 0.0
27/03:30pm 19.2 14.8 0.2 28 8.5 SSW 13 20 7 11 1019.7 - 0.0

Other Formats:

Comma delimited format used in spreadsheet applications
http://www.bom.gov.au/fwo/IDQ60801/IDQ60801.95529.axf

JavaScript Object Notation format (JSON) in row-major order
http://www.bom.gov.au/fwo/IDQ60801/IDQ60801.95529.json